sensor_id;sensor_type;location;lat;lon;timestamp;pressure;altitude;pressure_sealevel;temperature;humidity
58875;BME280;44652;49.040;12.126;2023-06-26T05:09:37;97540.25;;;16.94;89.24
58875;BME280;44652;49.040;12.126;2023-06-26T05:12:04;97563.34;;;17.17;87.84
58875;BME280;44652;49.040;12.126;2023-06-26T05:14:31;97550.00;;;17.18;87.72
58875;BME280;44652;49.040;12.126;2023-06-26T05:16:58;97544.69;;;17.24;87.20
58875;BME280;44652;49.040;12.126;2023-06-26T05:19:25;97562.41;;;17.35;86.05
58875;BME280;44652;49.040;12.126;2023-06-26T05:21:51;97560.66;;;17.43;84.47
58875;BME280;44652;49.040;12.126;2023-06-26T05:24:19;97566.81;;;17.69;83.94
58875;BME280;44652;49.040;12.126;2023-06-26T05:26:48;97526.91;;;17.39;84.89
58875;BME280;44652;49.040;12.126;2023-06-26T05:29:15;97558.78;;;17.65;85.34
58875;BME280;44652;49.040;12.126;2023-06-26T05:31:44;97552.59;;;17.63;83.65
58875;BME280;44652;49.040;12.126;2023-06-26T05:34:15;97550.81;;;17.79;83.75
58875;BME280;44652;49.040;12.126;2023-06-26T05:36:44;97564.88;;;18.13;83.65
58875;BME280;44652;49.040;12.126;2023-06-26T05:39:11;97550.66;;;18.15;82.61
58875;BME280;44652;49.040;12.126;2023-06-26T05:41:38;97540.84;;;18.20;81.75
58875;BME280;44652;49.040;12.126;2023-06-26T05:44:05;97540.81;;;18.22;80.68
58875;BME280;44652;49.040;12.126;2023-06-26T05:50:51;97548.69;;;18.46;77.96
58875;BME280;44652;49.040;12.126;2023-06-26T05:53:18;97548.66;;;18.51;77.28
58875;BME280;44652;49.040;12.126;2023-06-26T06:00:03;97521.94;;;18.59;77.02
58875;BME280;44652;49.040;12.126;2023-06-26T06:02:39;97543.22;;;18.69;76.84
58875;BME280;44652;49.040;12.126;2023-06-26T06:09:19;97559.06;;;18.99;77.11
58875;BME280;44652;49.040;12.126;2023-06-26T06:11:46;97573.22;;;19.08;76.43
58875;BME280;44652;49.040;12.126;2023-06-26T06:14:13;97551.03;;;19.00;76.32
58875;BME280;44652;49.040;12.126;2023-06-26T06:16:39;97555.34;;;19.18;76.30
58875;BME280;44652;49.040;12.126;2023-06-26T06:23:27;97535.56;;;19.34;75.27
58875;BME280;44652;49.040;12.126;2023-06-26T06:25:53;97540.84;;;19.42;75.91
58875;BME280;44652;49.040;12.126;2023-06-26T06:28:20;97563.00;;;19.55;75.77
58875;BME280;44652;49.040;12.126;2023-06-26T06:30:47;97558.53;;;19.55;75.99
58875;BME280;44652;49.040;12.126;2023-06-26T06:39:58;97552.94;;;19.81;73.86
58875;BME280;44652;49.040;12.126;2023-06-26T06:46:12;97575.72;;;20.14;72.52
58875;BME280;44652;49.040;12.126;2023-06-26T06:57:27;97539.81;;;20.32;71.56
58875;BME280;44652;49.040;12.126;2023-06-26T07:08:27;97554.06;;;20.96;70.69
58875;BME280;44652;49.040;12.126;2023-06-26T07:10:54;97542.44;;;20.97;70.16
58875;BME280;44652;49.040;12.126;2023-06-26T07:13:23;97530.72;;;21.04;69.78
58875;BME280;44652;49.040;12.126;2023-06-26T07:15:50;97559.84;;;21.26;68.52
58875;BME280;44652;49.040;12.126;2023-06-26T07:18:17;97534.72;;;21.33;68.10
58875;BME280;44652;49.040;12.126;2023-06-26T07:20:44;97546.50;;;21.21;68.22
58875;BME280;44652;49.040;12.126;2023-06-26T07:27:29;97537.81;;;21.59;66.78
58875;BME280;44652;49.040;12.126;2023-06-26T07:29:57;97545.88;;;21.59;67.55
58875;BME280;44652;49.040;12.126;2023-06-26T07:32:23;97523.72;;;21.48;67.82
58875;BME280;44652;49.040;12.126;2023-06-26T07:47:10;97529.34;;;21.81;59.57
58875;BME280;44652;49.040;12.126;2023-06-26T07:49:37;97524.22;;;22.12;59.75
58875;BME280;44652;49.040;12.126;2023-06-26T07:52:06;97536.75;;;22.11;60.52
58875;BME280;44652;49.040;12.126;2023-06-26T07:54:33;97545.13;;;22.41;57.75
58875;BME280;44652;49.040;12.126;2023-06-26T07:57:01;97554.03;;;22.43;57.77
58875;BME280;44652;49.040;12.126;2023-06-26T08:04:19;97545.53;;;23.02;57.29
58875;BME280;44652;49.040;12.126;2023-06-26T08:06:50;97527.78;;;22.95;56.81
58875;BME280;44652;49.040;12.126;2023-06-26T08:09:18;97539.84;;;23.14;55.10
58875;BME280;44652;49.040;12.126;2023-06-26T08:16:04;97517.59;;;23.43;53.99
58875;BME280;44652;49.040;12.126;2023-06-26T08:18:30;97523.56;;;23.54;53.74
58875;BME280;44652;49.040;12.126;2023-06-26T08:25:15;97461.47;;;23.29;53.64
58875;BME280;44652;49.040;12.126;2023-06-26T08:27:41;97537.06;;;23.53;53.87
58875;BME280;44652;49.040;12.126;2023-06-26T08:30:09;97527.69;;;23.69;52.56
58875;BME280;44652;49.040;12.126;2023-06-26T08:32:36;97510.06;;;23.56;53.13
58875;BME280;44652;49.040;12.126;2023-06-26T08:35:04;97520.13;;;23.82;52.07
58875;BME280;44652;49.040;12.126;2023-06-26T08:41:52;97488.09;;;24.04;52.12
58875;BME280;44652;49.040;12.126;2023-06-26T08:55:57;97507.19;;;24.85;51.47
58875;BME280;44652;49.040;12.126;2023-06-26T08:58:24;97506.44;;;24.80;50.23
58875;BME280;44652;49.040;12.126;2023-06-26T09:18:45;97460.91;;;25.51;48.66
58875;BME280;44652;49.040;12.126;2023-06-26T09:25:39;97411.09;;;25.36;47.86
58875;BME280;44652;49.040;12.126;2023-06-26T09:41:15;97445.16;;;25.88;46.93
58875;BME280;44652;49.040;12.126;2023-06-26T09:43:49;97451.25;;;26.17;46.45
58875;BME280;44652;49.040;12.126;2023-06-26T09:46:26;97438.88;;;26.11;46.60
58875;BME280;44652;49.040;12.126;2023-06-26T09:53:37;97459.19;;;26.45;45.23
58875;BME280;44652;49.040;12.126;2023-06-26T10:00:16;97437.97;;;26.80;44.92
58875;BME280;44652;49.040;12.126;2023-06-26T10:10:21;97432.78;;;27.17;44.28
58875;BME280;44652;49.040;12.126;2023-06-26T10:12:49;97438.56;;;27.51;42.87
58875;BME280;44652;49.040;12.126;2023-06-26T10:19:37;97395.50;;;27.45;43.05
58875;BME280;44652;49.040;12.126;2023-06-26T10:22:05;97412.69;;;27.23;41.87
58875;BME280;44652;49.040;12.126;2023-06-26T10:24:34;97410.44;;;27.94;42.86
58875;BME280;44652;49.040;12.126;2023-06-26T10:27:19;97409.31;;;27.79;41.56
58875;BME280;44652;49.040;12.126;2023-06-26T10:29:49;97399.50;;;27.96;41.55
58875;BME280;44652;49.040;12.126;2023-06-26T10:32:18;97403.16;;;27.76;41.17
58875;BME280;44652;49.040;12.126;2023-06-26T10:39:05;97392.88;;;28.41;39.59
58875;BME280;44652;49.040;12.126;2023-06-26T10:45:33;97403.94;;;28.55;39.48
58875;BME280;44652;49.040;12.126;2023-06-26T10:48:00;97402.72;;;28.79;39.38
58875;BME280;44652;49.040;12.126;2023-06-26T10:54:54;97372.50;;;28.87;37.64
58875;BME280;44652;49.040;12.126;2023-06-26T10:57:25;97361.41;;;28.92;37.44
58875;BME280;44652;49.040;12.126;2023-06-26T11:00:11;97384.97;;;29.08;38.88
58875;BME280;44652;49.040;12.126;2023-06-26T11:14:32;97368.28;;;30.33;30.98
58875;BME280;44652;49.040;12.126;2023-06-26T11:16:59;97385.03;;;30.73;31.56
58875;BME280;44652;49.040;12.126;2023-06-26T11:19:28;97360.47;;;30.59;30.90
58875;BME280;44652;49.040;12.126;2023-06-26T11:21:58;97369.50;;;30.75;28.77
58875;BME280;44652;49.040;12.126;2023-06-26T11:24:26;97363.09;;;30.76;29.27
58875;BME280;44652;49.040;12.126;2023-06-26T11:26:53;97347.38;;;30.81;30.27
58875;BME280;44652;49.040;12.126;2023-06-26T11:29:19;97340.38;;;31.07;29.58
58875;BME280;44652;49.040;12.126;2023-06-26T11:31:46;97328.13;;;31.59;28.71
58875;BME280;44652;49.040;12.126;2023-06-26T11:34:13;97358.22;;;32.43;28.18
58875;BME280;44652;49.040;12.126;2023-06-26T11:36:42;97347.31;;;32.14;27.03
58875;BME280;44652;49.040;12.126;2023-06-26T11:39:09;97345.22;;;32.46;27.27
58875;BME280;44652;49.040;12.126;2023-06-26T11:41:39;97336.94;;;32.34;26.49
58875;BME280;44652;49.040;12.126;2023-06-26T11:44:08;97342.53;;;32.18;26.30
58875;BME280;44652;49.040;12.126;2023-06-26T11:46:37;97342.75;;;32.01;27.29
58875;BME280;44652;49.040;12.126;2023-06-26T11:49:07;97334.78;;;32.39;28.00
58875;BME280;44652;49.040;12.126;2023-06-26T11:51:34;97343.47;;;33.00;27.19
58875;BME280;44652;49.040;12.126;2023-06-26T11:54:03;97331.88;;;32.69;26.67
58875;BME280;44652;49.040;12.126;2023-06-26T13:17:18;97287.69;;;33.29;25.03
58875;BME280;44652;49.040;12.126;2023-06-26T13:19:45;97278.63;;;32.63;25.55
58875;BME280;44652;49.040;12.126;2023-06-26T13:22:11;97261.47;;;32.20;26.25
58875;BME280;44652;49.040;12.126;2023-06-26T13:24:38;97265.72;;;32.38;25.48
58875;BME280;44652;49.040;12.126;2023-06-26T13:27:05;97284.94;;;32.64;24.89
58875;BME280;44652;49.040;12.126;2023-06-26T13:29:58;97273.59;;;33.10;24.98
58875;BME280;44652;49.040;12.126;2023-06-26T13:41:50;97212.81;;;31.15;26.43
58875;BME280;44652;49.040;12.126;2023-06-26T13:44:22;97253.97;;;31.39;26.93
58875;BME280;44652;49.040;12.126;2023-06-26T13:47:01;97243.13;;;32.09;25.65
58875;BME280;44652;49.040;12.126;2023-06-26T13:49:28;97255.63;;;31.99;25.51
58875;BME280;44652;49.040;12.126;2023-06-26T13:51:55;97241.63;;;32.72;25.05
58875;BME280;44652;49.040;12.126;2023-06-26T13:54:22;97251.00;;;32.68;25.48
58875;BME280;44652;49.040;12.126;2023-06-26T13:56:48;97231.06;;;32.93;24.56
58875;BME280;44652;49.040;12.126;2023-06-26T13:59:15;97256.38;;;33.48;24.20
58875;BME280;44652;49.040;12.126;2023-06-26T14:01:42;97235.38;;;33.23;24.19
58875;BME280;44652;49.040;12.126;2023-06-26T14:04:10;97243.91;;;33.31;24.41
58875;BME280;44652;49.040;12.126;2023-06-26T14:06:37;97243.97;;;32.51;25.45
58875;BME280;44652;49.040;12.126;2023-06-26T14:09:04;97234.50;;;31.74;25.42
58875;BME280;44652;49.040;12.126;2023-06-26T14:11:30;97238.06;;;32.44;25.22
58875;BME280;44652;49.040;12.126;2023-06-26T14:13:59;97229.94;;;32.16;26.29
58875;BME280;44652;49.040;12.126;2023-06-26T14:16:26;97224.53;;;32.43;26.12
58875;BME280;44652;49.040;12.126;2023-06-26T14:18:56;97242.44;;;33.00;25.55
58875;BME280;44652;49.040;12.126;2023-06-26T14:21:22;97242.16;;;33.04;24.71
58875;BME280;44652;49.040;12.126;2023-06-26T14:23:49;97237.44;;;33.06;24.12
58875;BME280;44652;49.040;12.126;2023-06-26T14:26:16;97228.03;;;32.98;24.06
58875;BME280;44652;49.040;12.126;2023-06-26T14:28:43;97217.56;;;33.04;24.29
58875;BME280;44652;49.040;12.126;2023-06-26T14:31:10;97237.31;;;33.33;24.04
58875;BME280;44652;49.040;12.126;2023-06-26T14:33:37;97215.38;;;33.09;24.04
58875;BME280;44652;49.040;12.126;2023-06-26T14:36:04;97220.75;;;33.86;23.09
58875;BME280;44652;49.040;12.126;2023-06-26T14:38:30;97224.53;;;34.22;23.01
58875;BME280;44652;49.040;12.126;2023-06-26T14:40:57;97201.22;;;34.40;22.60
58875;BME280;44652;49.040;12.126;2023-06-26T14:43:24;97216.47;;;34.07;20.91
58875;BME280;44652;49.040;12.126;2023-06-26T14:45:51;97223.69;;;34.08;20.73
58875;BME280;44652;49.040;12.126;2023-06-26T14:48:18;97202.97;;;33.80;23.30
58875;BME280;44652;49.040;12.126;2023-06-26T14:50:45;97199.97;;;33.96;22.31
58875;BME280;44652;49.040;12.126;2023-06-26T14:53:15;97196.16;;;33.99;22.30
58875;BME280;44652;49.040;12.126;2023-06-26T14:55:42;97204.25;;;34.24;22.40
58875;BME280;44652;49.040;12.126;2023-06-26T14:58:08;97212.72;;;34.21;22.39
58875;BME280;44652;49.040;12.126;2023-06-26T15:00:35;97202.91;;;34.54;21.56
58875;BME280;44652;49.040;12.126;2023-06-26T15:03:02;97204.38;;;34.23;21.81
58875;BME280;44652;49.040;12.126;2023-06-26T15:05:29;97207.81;;;34.13;21.61
58875;BME280;44652;49.040;12.126;2023-06-26T15:07:56;97181.06;;;34.17;22.14
58875;BME280;44652;49.040;12.126;2023-06-26T15:10:23;97207.56;;;34.41;21.63
58875;BME280;44652;49.040;12.126;2023-06-26T15:12:53;97172.47;;;34.10;21.75
58875;BME280;44652;49.040;12.126;2023-06-26T15:15:20;97190.56;;;33.51;22.45
58875;BME280;44652;49.040;12.126;2023-06-26T15:17:47;97209.97;;;33.72;22.17
58875;BME280;44652;49.040;12.126;2023-06-26T15:20:14;97204.84;;;32.90;23.34
58875;BME280;44652;49.040;12.126;2023-06-26T15:22:41;97175.44;;;32.68;24.02
58875;BME280;44652;49.040;12.126;2023-06-26T15:25:08;97177.75;;;32.75;23.44
58875;BME280;44652;49.040;12.126;2023-06-26T15:27:34;97162.63;;;32.96;23.03
58875;BME280;44652;49.040;12.126;2023-06-26T15:30:01;97160.09;;;32.93;24.57
58875;BME280;44652;49.040;12.126;2023-06-26T15:32:28;97169.22;;;32.92;23.94
58875;BME280;44652;49.040;12.126;2023-06-26T15:34:54;97162.50;;;32.98;24.12
58875;BME280;44652;49.040;12.126;2023-06-26T15:37:21;97154.47;;;32.69;24.05
58875;BME280;44652;49.040;12.126;2023-06-26T15:39:48;97179.88;;;33.09;25.02
58875;BME280;44652;49.040;12.126;2023-06-26T15:42:15;97165.31;;;33.22;24.66
58875;BME280;44652;49.040;12.126;2023-06-26T15:44:41;97185.09;;;33.00;24.54
58875;BME280;44652;49.040;12.126;2023-06-26T15:47:08;97184.63;;;32.67;25.39
58875;BME280;44652;49.040;12.126;2023-06-26T15:49:35;97163.06;;;32.10;26.11
58875;BME280;44652;49.040;12.126;2023-06-26T15:52:01;97150.66;;;31.50;27.33
58875;BME280;44652;49.040;12.126;2023-06-26T15:54:28;97160.28;;;31.27;27.80
58875;BME280;44652;49.040;12.126;2023-06-26T15:56:55;97171.59;;;31.36;28.19
58875;BME280;44652;49.040;12.126;2023-06-26T15:59:21;97147.44;;;31.44;28.22
58875;BME280;44652;49.040;12.126;2023-06-26T16:01:48;97160.31;;;31.83;28.27
58875;BME280;44652;49.040;12.126;2023-06-26T16:04:17;97128.06;;;31.63;27.67
58875;BME280;44652;49.040;12.126;2023-06-26T16:06:44;97147.41;;;31.87;28.07
58875;BME280;44652;49.040;12.126;2023-06-26T16:09:11;97146.91;;;32.07;28.35
58875;BME280;44652;49.040;12.126;2023-06-26T16:11:37;97138.38;;;31.99;28.24
58875;BME280;44652;49.040;12.126;2023-06-26T16:14:04;97131.53;;;32.06;28.49
58875;BME280;44652;49.040;12.126;2023-06-26T16:16:31;97137.59;;;31.97;27.61
58875;BME280;44652;49.040;12.126;2023-06-26T16:18:58;97128.84;;;31.65;28.91
58875;BME280;44652;49.040;12.126;2023-06-26T16:21:25;97125.16;;;31.52;29.85
58875;BME280;44652;49.040;12.126;2023-06-26T16:23:51;97129.78;;;31.37;29.74
58875;BME280;44652;49.040;12.126;2023-06-26T16:26:18;97140.00;;;31.33;30.17
58875;BME280;44652;49.040;12.126;2023-06-26T16:28:45;97135.25;;;31.37;29.76
58875;BME280;44652;49.040;12.126;2023-06-26T16:31:14;97122.56;;;31.21;29.63
58875;BME280;44652;49.040;12.126;2023-06-26T16:33:41;97133.63;;;31.47;29.26
58875;BME280;44652;49.040;12.126;2023-06-26T16:36:08;97119.28;;;31.31;29.45
58875;BME280;44652;49.040;12.126;2023-06-26T16:38:34;97105.56;;;31.18;30.45
58875;BME280;44652;49.040;12.126;2023-06-26T16:41:01;97129.00;;;31.06;31.45
58875;BME280;44652;49.040;12.126;2023-06-26T16:43:28;97115.97;;;30.83;31.08
58875;BME280;44652;49.040;12.126;2023-06-26T16:45:55;97134.44;;;30.77;32.17
58875;BME280;44652;49.040;12.126;2023-06-26T16:48:21;97132.91;;;30.88;31.83
58875;BME280;44652;49.040;12.126;2023-06-26T16:50:48;97111.88;;;30.61;31.95
58875;BME280;44652;49.040;12.126;2023-06-26T16:53:15;97123.69;;;30.16;32.05
58875;BME280;44652;49.040;12.126;2023-06-26T16:55:41;97124.59;;;30.30;33.31
58875;BME280;44652;49.040;12.126;2023-06-26T16:58:08;97116.94;;;30.07;33.14
58875;BME280;44652;49.040;12.126;2023-06-26T17:00:35;97136.00;;;29.91;32.99
58875;BME280;44652;49.040;12.126;2023-06-26T17:03:05;97146.63;;;29.80;33.41
58875;BME280;44652;49.040;12.126;2023-06-26T17:05:32;97115.91;;;29.64;33.87
58875;BME280;44652;49.040;12.126;2023-06-26T17:08:00;97136.47;;;29.52;34.25
58875;BME280;44652;49.040;12.126;2023-06-26T17:10:27;97122.19;;;29.32;34.82
58875;BME280;44652;49.040;12.126;2023-06-26T17:12:54;97132.69;;;29.39;34.82
58875;BME280;44652;49.040;12.126;2023-06-26T17:15:21;97126.97;;;29.43;35.00
58875;BME280;44652;49.040;12.126;2023-06-26T17:17:49;97141.91;;;29.52;34.63
58875;BME280;44652;49.040;12.126;2023-06-26T17:20:17;97132.78;;;29.53;34.99
58875;BME280;44652;49.040;12.126;2023-06-26T17:22:45;97157.66;;;29.77;35.13
58875;BME280;44652;49.040;12.126;2023-06-26T17:25:13;97148.91;;;29.56;35.73
58875;BME280;44652;49.040;12.126;2023-06-26T17:27:41;97149.41;;;29.31;36.32
58875;BME280;44652;49.040;12.126;2023-06-26T17:30:08;97122.34;;;29.14;36.26
58875;BME280;44652;49.040;12.126;2023-06-26T17:32:35;97154.13;;;29.12;36.92
58875;BME280;44652;49.040;12.126;2023-06-26T17:35:02;97139.16;;;29.20;36.67
58875;BME280;44652;49.040;12.126;2023-06-26T17:37:28;97135.56;;;29.20;37.07
58875;BME280;44652;49.040;12.126;2023-06-26T17:39:55;97158.09;;;29.22;38.39
58875;BME280;44652;49.040;12.126;2023-06-26T17:42:22;97169.56;;;29.27;38.56
58875;BME280;44652;49.040;12.126;2023-06-26T17:44:52;97151.25;;;29.46;38.34
58875;BME280;44652;49.040;12.126;2023-06-26T17:47:19;97155.66;;;29.33;38.47
58875;BME280;44652;49.040;12.126;2023-06-26T17:49:45;97172.44;;;29.40;38.03
58875;BME280;44652;49.040;12.126;2023-06-26T17:52:12;97141.31;;;28.98;38.94
58875;BME280;44652;49.040;12.126;2023-06-26T17:54:41;97184.22;;;28.90;39.31
58875;BME280;44652;49.040;12.126;2023-06-26T17:57:08;97184.91;;;28.60;39.59
58875;BME280;44652;49.040;12.126;2023-06-26T17:59:35;97189.41;;;28.44;40.21
58875;BME280;44652;49.040;12.126;2023-06-26T18:02:02;97205.41;;;28.48;40.95
58875;BME280;44652;49.040;12.126;2023-06-26T18:04:30;97219.91;;;28.30;41.40
58875;BME280;44652;49.040;12.126;2023-06-26T18:06:56;97210.38;;;28.04;41.49
58875;BME280;44652;49.040;12.126;2023-06-26T18:09:24;97232.28;;;27.99;41.92
58875;BME280;44652;49.040;12.126;2023-06-26T18:12:13;97234.56;;;27.89;42.40
58875;BME280;44652;49.040;12.126;2023-06-26T18:14:40;97226.00;;;27.61;42.63
58875;BME280;44652;49.040;12.126;2023-06-26T18:17:06;97237.19;;;27.53;42.33
58875;BME280;44652;49.040;12.126;2023-06-26T18:19:34;97245.25;;;27.55;42.74
58875;BME280;44652;49.040;12.126;2023-06-26T18:22:01;97238.06;;;27.35;43.17
58875;BME280;44652;49.040;12.126;2023-06-26T18:24:27;97252.19;;;27.41;42.70
58875;BME280;44652;49.040;12.126;2023-06-26T18:26:57;97255.59;;;27.26;42.43
58875;BME280;44652;49.040;12.126;2023-06-26T18:29:27;97249.75;;;27.16;42.86
58875;BME280;44652;49.040;12.126;2023-06-26T18:36:07;97278.69;;;26.94;40.85
58875;BME280;44652;49.040;12.126;2023-06-26T18:43:12;97248.94;;;26.53;40.40
58875;BME280;44652;49.040;12.126;2023-06-26T18:49:29;97294.50;;;26.62;41.10
58875;BME280;44652;49.040;12.126;2023-06-26T18:56:43;97283.72;;;26.18;40.93
58875;BME280;44652;49.040;12.126;2023-06-26T18:59:10;97306.84;;;26.26;40.87
58875;BME280;44652;49.040;12.126;2023-06-26T19:13:02;97308.22;;;25.68;40.91
58875;BME280;44652;49.040;12.126;2023-06-26T19:15:41;97305.09;;;25.56;41.00
58875;BME280;44652;49.040;12.126;2023-06-26T19:26:00;97325.78;;;25.32;41.98
58875;BME280;44652;49.040;12.126;2023-06-26T19:28:26;97320.69;;;25.24;41.80
58875;BME280;44652;49.040;12.126;2023-06-26T19:30:55;97339.41;;;25.29;42.47
58875;BME280;44652;49.040;12.126;2023-06-26T19:33:50;97345.78;;;25.26;42.50
58875;BME280;44652;49.040;12.126;2023-06-26T19:36:43;97338.84;;;25.19;42.66
58875;BME280;44652;49.040;12.126;2023-06-26T19:43:11;97274.34;;;24.63;42.95
58875;BME280;44652;49.040;12.126;2023-06-26T19:46:04;97349.50;;;24.97;43.43
58875;BME280;44652;49.040;12.126;2023-06-26T19:48:31;97352.25;;;24.95;43.63
58875;BME280;44652;49.040;12.126;2023-06-26T19:50:57;97336.59;;;24.80;43.94
58875;BME280;44652;49.040;12.126;2023-06-26T19:53:27;97334.69;;;24.59;44.65
58875;BME280;44652;49.040;12.126;2023-06-26T19:55:54;97339.06;;;24.61;44.80
58875;BME280;44652;49.040;12.126;2023-06-26T19:58:21;97348.75;;;24.40;45.45
58875;BME280;44652;49.040;12.126;2023-06-26T20:00:48;97354.53;;;24.55;45.45
58875;BME280;44652;49.040;12.126;2023-06-26T20:03:14;97367.19;;;24.52;46.19
58875;BME280;44652;49.040;12.126;2023-06-26T20:05:41;97372.06;;;24.41;46.67
58875;BME280;44652;49.040;12.126;2023-06-26T20:08:08;97355.50;;;24.25;47.28
58875;BME280;44652;49.040;12.126;2023-06-26T20:10:35;97370.41;;;24.36;47.45
58875;BME280;44652;49.040;12.126;2023-06-26T20:13:02;97368.97;;;24.25;47.90
58875;BME280;44652;49.040;12.126;2023-06-26T20:15:28;97349.91;;;24.03;48.76
58875;BME280;44652;49.040;12.126;2023-06-26T20:17:55;97368.69;;;24.05;49.46
58875;BME280;44652;49.040;12.126;2023-06-26T20:20:22;97377.63;;;24.07;50.06
58875;BME280;44652;49.040;12.126;2023-06-26T20:22:49;97372.50;;;23.98;50.73
58875;BME280;44652;49.040;12.126;2023-06-26T20:25:15;97380.66;;;23.96;50.88
58875;BME280;44652;49.040;12.126;2023-06-26T20:27:42;97366.47;;;23.90;51.29
58875;BME280;44652;49.040;12.126;2023-06-26T20:30:09;97375.66;;;23.84;51.68
58875;BME280;44652;49.040;12.126;2023-06-26T20:32:36;97387.28;;;23.85;51.65
58875;BME280;44652;49.040;12.126;2023-06-26T20:35:03;97380.94;;;23.87;51.72
58875;BME280;44652;49.040;12.126;2023-06-26T20:37:29;97375.09;;;23.73;52.25
58875;BME280;44652;49.040;12.126;2023-06-26T20:39:56;97397.19;;;23.84;51.91
58875;BME280;44652;49.040;12.126;2023-06-26T20:42:23;97382.44;;;23.68;51.71
58875;BME280;44652;49.040;12.126;2023-06-26T20:44:50;97397.50;;;23.73;52.00
58875;BME280;44652;49.040;12.126;2023-06-26T20:47:17;97387.81;;;23.68;51.79
58875;BME280;44652;49.040;12.126;2023-06-26T20:49:46;97384.50;;;23.57;52.43
58875;BME280;44652;49.040;12.126;2023-06-26T20:52:16;97358.28;;;23.34;52.72
58875;BME280;44652;49.040;12.126;2023-06-26T20:54:44;97395.44;;;23.50;53.06
58875;BME280;44652;49.040;12.126;2023-06-26T20:57:11;97397.41;;;23.44;53.37
58875;BME280;44652;49.040;12.126;2023-06-26T20:59:38;97375.25;;;23.36;53.31
58875;BME280;44652;49.040;12.126;2023-06-26T21:02:05;97378.28;;;23.23;53.40
58875;BME280;44652;49.040;12.126;2023-06-26T21:04:32;97396.81;;;23.34;53.21
58875;BME280;44652;49.040;12.126;2023-06-26T21:07:05;97386.56;;;23.16;53.74
58875;BME280;44652;49.040;12.126;2023-06-26T21:09:32;97402.41;;;23.26;53.43
58875;BME280;44652;49.040;12.126;2023-06-26T21:11:58;97384.25;;;23.02;53.82
58875;BME280;44652;49.040;12.126;2023-06-26T21:14:27;97402.03;;;23.06;53.75
58875;BME280;44652;49.040;12.126;2023-06-26T21:16:54;97389.81;;;22.94;53.95
58875;BME280;44652;49.040;12.126;2023-06-26T21:19:21;97408.69;;;22.93;54.43
58875;BME280;44652;49.040;12.126;2023-06-26T21:21:47;97419.25;;;23.00;54.44
58875;BME280;44652;49.040;12.126;2023-06-26T21:24:14;97423.03;;;22.90;54.64
58875;BME280;44652;49.040;12.126;2023-06-26T21:26:41;97436.53;;;22.89;54.99
58875;BME280;44652;49.040;12.126;2023-06-26T21:29:07;97445.94;;;22.71;55.50
58875;BME280;44652;49.040;12.126;2023-06-26T21:31:34;97426.75;;;22.50;56.12
58875;BME280;44652;49.040;12.126;2023-06-26T21:34:01;97432.03;;;22.53;56.25
58875;BME280;44652;49.040;12.126;2023-06-26T21:36:28;97439.31;;;22.48;56.28
58875;BME280;44652;49.040;12.126;2023-06-26T21:38:54;97455.38;;;22.51;56.00
58875;BME280;44652;49.040;12.126;2023-06-26T21:41:21;97451.06;;;22.44;56.07
58875;BME280;44652;49.040;12.126;2023-06-26T21:43:48;97468.84;;;22.48;55.59
58875;BME280;44652;49.040;12.126;2023-06-26T21:46:15;97467.34;;;22.37;55.67
58875;BME280;44652;49.040;12.126;2023-06-26T21:48:43;97464.94;;;22.24;55.40
58875;BME280;44652;49.040;12.126;2023-06-26T21:51:09;97477.44;;;22.25;55.77
58875;BME280;44652;49.040;12.126;2023-06-26T21:53:36;97485.44;;;22.27;53.83
58875;BME280;44652;49.040;12.126;2023-06-26T21:56:03;97471.50;;;22.09;53.61
58875;BME280;44652;49.040;12.126;2023-06-26T21:58:29;97478.63;;;22.10;53.11
58875;BME280;44652;49.040;12.126;2023-06-26T22:00:56;97477.69;;;22.13;53.14
58875;BME280;44652;49.040;12.126;2023-06-26T22:03:23;97495.59;;;22.13;52.54
58875;BME280;44652;49.040;12.126;2023-06-26T22:05:50;97487.94;;;21.93;52.21
58875;BME280;44652;49.040;12.126;2023-06-26T22:08:16;97509.47;;;21.91;51.75
58875;BME280;44652;49.040;12.126;2023-06-26T22:10:43;97486.44;;;21.79;51.15
58875;BME280;44652;49.040;12.126;2023-06-26T22:13:10;97503.34;;;21.84;50.56
58875;BME280;44652;49.040;12.126;2023-06-26T22:15:36;97510.59;;;21.79;50.39
58875;BME280;44652;49.040;12.126;2023-06-26T22:18:03;97499.16;;;21.71;50.63
58875;BME280;44652;49.040;12.126;2023-06-26T22:20:30;97515.81;;;21.85;50.90
58875;BME280;44652;49.040;12.126;2023-06-26T22:22:57;97507.34;;;21.64;51.05
58875;BME280;44652;49.040;12.126;2023-06-26T22:25:24;97499.06;;;21.74;51.26
58875;BME280;44652;49.040;12.126;2023-06-26T22:27:52;97518.03;;;21.65;51.70
58875;BME280;44652;49.040;12.126;2023-06-26T22:30:21;97496.09;;;21.43;52.26
58875;BME280;44652;49.040;12.126;2023-06-26T22:32:48;97508.72;;;21.38;52.10
58875;BME280;44652;49.040;12.126;2023-06-26T22:35:15;97507.94;;;21.28;52.39
58875;BME280;44652;49.040;12.126;2023-06-26T22:37:43;97507.13;;;21.25;52.68
58875;BME280;44652;49.040;12.126;2023-06-26T22:40:11;97505.41;;;21.21;52.12
58875;BME280;44652;49.040;12.126;2023-06-26T22:42:39;97520.59;;;21.22;51.59
58875;BME280;44652;49.040;12.126;2023-06-26T22:45:08;97518.06;;;21.14;51.83
58875;BME280;44652;49.040;12.126;2023-06-26T22:47:36;97507.47;;;21.06;50.94
58875;BME280;44652;49.040;12.126;2023-06-26T22:50:04;97512.88;;;21.02;50.79
58875;BME280;44652;49.040;12.126;2023-06-26T22:52:32;97510.19;;;21.02;49.58
58875;BME280;44652;49.040;12.126;2023-06-26T22:54:59;97529.84;;;21.04;49.53
58875;BME280;44652;49.040;12.126;2023-06-26T22:57:27;97542.34;;;21.03;49.18
58875;BME280;44652;49.040;12.126;2023-06-26T22:59:54;97518.53;;;20.83;49.08
58875;BME280;44652;49.040;12.126;2023-06-26T23:02:20;97516.91;;;20.76;49.03
58875;BME280;44652;49.040;12.126;2023-06-26T23:04:48;97546.13;;;20.92;48.78